createdAt,value
2019-05-23T00:01:12.362Z,6.85
2019-05-23T00:03:59.028Z,6.89
2019-05-23T00:06:29.715Z,6.72
2019-05-23T00:09:00.904Z,6.74
2019-05-23T00:11:55.501Z,6.85
2019-05-23T00:14:34.161Z,6.95
2019-05-23T00:17:04.168Z,6.91
2019-05-23T00:19:34.201Z,6.97
2019-05-23T00:22:06.305Z,6.88
2019-05-23T00:24:37.495Z,6.79
2019-05-23T00:27:10.112Z,6.73
2019-05-23T00:29:40.782Z,6.54
2019-05-23T00:32:21.020Z,6.45
2019-05-23T00:34:51.390Z,6.31
2019-05-23T00:37:23.018Z,6.47
2019-05-23T00:39:53.454Z,6.33
2019-05-23T00:42:23.121Z,6.29
2019-05-23T00:44:53.956Z,6.09
2019-05-23T00:47:23.658Z,5.95
2019-05-23T00:49:53.317Z,6.14
2019-05-23T00:52:23.193Z,6.19
2019-05-23T00:54:52.925Z,6.20
2019-05-23T00:57:22.458Z,6.16
2019-05-23T00:59:52.850Z,6.06
2019-05-23T01:02:26.115Z,6.13
2019-05-23T01:04:56.158Z,6.05
2019-05-23T01:07:25.875Z,6.15
2019-05-23T01:09:55.366Z,6.19
2019-05-23T01:12:24.890Z,6.27
2019-05-23T01:14:55.531Z,6.18
2019-05-23T01:17:27.152Z,6.13
2019-05-23T01:19:58.031Z,6.12
2019-05-23T01:22:28.459Z,6.15
2019-05-23T01:24:58.250Z,6.28
2019-05-23T01:27:27.916Z,6.19
2019-05-23T01:29:58.975Z,6.15
2019-05-23T01:32:44.815Z,6.08
2019-05-23T02:33:15.374Z,5.42
2019-05-23T02:35:44.698Z,5.48
2019-05-23T02:38:36.293Z,5.47
2019-05-23T02:41:26.469Z,5.53
2019-05-23T02:44:01.620Z,5.50
2019-05-23T02:46:38.192Z,5.43
2019-05-23T02:49:11.295Z,5.27
2019-05-23T02:51:42.009Z,5.17
2019-05-23T02:54:13.928Z,5.23
2019-05-23T02:56:44.924Z,5.21
2019-05-23T02:59:52.976Z,5.08
2019-05-23T03:02:58.933Z,5.03
2019-05-23T03:05:29.224Z,4.92
2019-05-23T03:08:00.630Z,4.85
2019-05-23T03:10:49.948Z,4.84
2019-05-23T03:13:21.037Z,4.85
2019-05-23T03:15:51.672Z,4.92
2019-05-23T03:18:23.409Z,4.93
2019-05-23T03:20:53.006Z,4.91
2019-05-23T03:23:22.951Z,4.76
2019-05-23T03:26:30.108Z,4.65
2019-05-23T03:29:00.011Z,4.53
2019-05-23T03:31:37.650Z,4.48
2019-05-23T03:34:09.683Z,4.37
2019-05-23T03:36:39.511Z,4.37
2019-05-23T03:39:12.736Z,4.61
2019-05-23T03:41:45.641Z,4.57
2019-05-23T03:44:15.295Z,4.53
2019-05-23T03:46:47.419Z,4.62
2019-05-23T03:49:19.781Z,4.50
2019-05-23T03:51:49.305Z,4.46
2019-05-23T03:54:19.108Z,4.50
2019-05-23T03:56:50.370Z,4.64
2019-05-23T03:59:20.467Z,4.67
2019-05-23T04:01:52.501Z,4.68
2019-05-23T04:04:22.129Z,4.75
2019-05-23T04:06:52.739Z,4.87
2019-05-23T04:09:22.222Z,4.95
2019-05-23T04:11:52.162Z,4.99
2019-05-23T04:14:21.622Z,4.99
2019-05-23T04:16:51.195Z,5.11
2019-05-23T04:19:20.706Z,5.22
2019-05-23T04:22:17.467Z,5.51
2019-05-23T04:24:47.216Z,5.55
2019-05-23T04:27:16.943Z,5.64
2019-05-23T04:29:46.515Z,5.72
2019-05-23T04:32:16.359Z,5.84
2019-05-23T04:34:46.073Z,5.83
2019-05-23T04:37:15.676Z,6.03
2019-05-23T04:39:45.460Z,5.91
2019-05-23T04:42:14.866Z,5.98
2019-05-23T04:44:44.860Z,6.08
2019-05-23T04:47:14.729Z,6.22
2019-05-23T04:49:44.323Z,6.26
2019-05-23T04:52:14.263Z,6.76
2019-05-23T04:54:44.012Z,7.02
2019-05-23T04:57:14.598Z,7.27
2019-05-23T04:59:44.137Z,7.33
2019-05-23T05:02:25.383Z,7.46
2019-05-23T05:04:46.374Z,7.54
2019-05-23T05:07:16.166Z,7.58
2019-05-23T05:09:45.616Z,7.48
2019-05-23T05:12:16.695Z,7.42
2019-05-23T05:14:46.315Z,7.48
2019-05-23T05:17:15.881Z,7.58
2019-05-23T05:19:45.904Z,7.83
2019-05-23T05:22:15.296Z,7.79
2019-05-23T05:24:44.839Z,7.89
2019-05-23T05:27:14.462Z,8.18
2019-05-23T05:29:43.886Z,8.37
2019-05-23T05:32:15.146Z,8.29
2019-05-23T05:34:44.665Z,8.35
2019-05-23T05:37:14.174Z,8.33
2019-05-23T05:39:44.089Z,8.29
2019-05-23T05:42:14.236Z,8.15
2019-05-23T05:44:43.902Z,7.80
2019-05-23T05:47:13.887Z,8.16
2019-05-23T05:49:43.503Z,8.46
2019-05-23T05:52:13.503Z,8.51
2019-05-23T05:54:43.190Z,8.54
2019-05-23T05:57:12.872Z,8.50
2019-05-23T05:59:42.431Z,8.58
2019-05-23T06:02:14.104Z,8.80
2019-05-23T06:04:43.601Z,8.64
2019-05-23T06:07:33.638Z,9.15
2019-05-23T06:10:05.050Z,9.38
2019-05-23T06:12:34.729Z,9.66
2019-05-23T06:15:05.203Z,9.85
2019-05-23T06:17:35.377Z,10.10
2019-05-23T06:20:05.470Z,10.21
2019-05-23T06:22:34.991Z,10.42
2019-05-23T06:25:05.780Z,10.72
2019-05-23T06:27:35.895Z,10.94
2019-05-23T06:30:08.770Z,10.96
2019-05-23T06:32:38.488Z,10.89
2019-05-23T06:35:08.232Z,11.04
2019-05-23T06:37:38.221Z,11.09
2019-05-23T06:40:08.413Z,11.10
2019-05-23T06:42:38.678Z,11.44
2019-05-23T06:45:08.751Z,11.44
2019-05-23T06:47:39.685Z,11.36
2019-05-23T06:50:14.373Z,11.60
2019-05-23T06:52:44.105Z,11.50
2019-05-23T06:55:13.751Z,11.60
2019-05-23T06:57:43.372Z,11.59
2019-05-23T07:00:17.135Z,12.72
2019-05-23T07:02:47.858Z,13.63
2019-05-23T07:05:20.235Z,13.95
2019-05-23T07:07:50.191Z,13.95
2019-05-23T07:10:19.860Z,14.17
2019-05-23T07:12:49.468Z,14.49
2019-05-23T07:15:19.491Z,14.64
2019-05-23T07:17:49.025Z,14.63
2019-05-23T07:20:18.676Z,14.85
2019-05-23T07:22:48.565Z,15.21
2019-05-23T07:25:18.065Z,15.24
2019-05-23T07:27:47.787Z,15.80
2019-05-23T07:30:21.762Z,15.43
2019-05-23T07:32:51.446Z,16.19
2019-05-23T07:35:21.307Z,17.09
2019-05-23T07:37:50.724Z,17.52
2019-05-23T07:40:20.467Z,18.47
2019-05-23T07:42:50.362Z,18.82
2019-05-23T07:45:24.021Z,18.75
2019-05-23T07:47:54.056Z,17.75
2019-05-23T07:50:23.770Z,18.97
2019-05-23T07:52:55.511Z,19.36
2019-05-23T07:55:30.663Z,18.70
2019-05-23T07:58:00.267Z,19.35
2019-05-23T08:00:32.856Z,20.53
2019-05-23T08:03:05.305Z,20.80
2019-05-23T08:05:35.255Z,21.29
2019-05-23T08:08:05.691Z,20.49
2019-05-23T08:10:35.469Z,21.28
2019-05-23T08:13:05.331Z,21.29
2019-05-23T08:15:35.986Z,19.82
2019-05-23T08:18:05.854Z,20.65
2019-05-23T08:20:35.339Z,19.78
2019-05-23T08:23:04.785Z,20.59
2019-05-23T08:25:34.375Z,21.79
2019-05-23T08:28:06.405Z,22.35
2019-05-23T08:30:36.125Z,22.33
2019-05-23T08:33:06.963Z,23.50
2019-05-23T08:35:36.819Z,23.03
2019-05-23T08:38:07.518Z,23.34
2019-05-23T08:48:29.295Z,25.00
2019-05-23T08:50:58.898Z,25.29
2019-05-23T09:01:32.698Z,26.08
2019-05-23T09:04:02.935Z,25.44
2019-05-23T10:38:22.748Z,31.46
2019-05-23T10:40:52.225Z,32.98
2019-05-23T10:43:21.591Z,32.52
2019-05-23T11:26:13.948Z,31.17
2019-05-23T11:28:43.219Z,30.39
2019-05-23T11:31:13.387Z,31.59
2019-05-23T12:25:51.269Z,32.11
2019-05-23T12:28:20.963Z,31.30
2019-05-23T12:30:50.645Z,29.93
2019-05-23T12:44:02.702Z,33.43
2019-05-23T12:46:32.286Z,34.58
2019-05-23T12:49:19.548Z,34.60
2019-05-23T12:51:50.470Z,35.47
2019-05-23T12:54:20.006Z,35.16
2019-05-23T12:56:49.859Z,35.21
2019-05-23T12:59:19.885Z,33.23
2019-05-23T13:01:51.370Z,34.11
2019-05-23T13:04:22.137Z,34.11
2019-05-23T13:06:51.709Z,33.30
2019-05-23T13:09:21.176Z,31.95
2019-05-23T13:11:51.047Z,31.23
2019-05-23T13:14:21.160Z,31.65
2019-05-23T13:16:50.539Z,32.89
2019-05-23T13:19:20.853Z,31.69
2019-05-23T13:21:50.456Z,33.30
2019-05-23T13:24:19.978Z,29.78
2019-05-23T13:26:49.424Z,32.77
2019-05-23T13:29:19.020Z,31.99
2019-05-23T13:31:48.592Z,32.16
2019-05-23T13:34:18.174Z,34.37
2019-05-23T13:36:47.804Z,33.70
2019-05-23T13:39:18.109Z,31.99
2019-05-23T13:41:47.694Z,31.34
2019-05-23T13:44:32.622Z,33.96
2019-05-23T13:46:48.629Z,34.97
2019-05-23T13:49:18.216Z,35.64
2019-05-23T13:51:48.151Z,34.31
2019-05-23T13:54:18.113Z,32.84
2019-05-23T13:56:48.150Z,33.47
2019-05-23T13:59:17.960Z,32.17
2019-05-23T14:01:48.145Z,31.64
2019-05-23T14:04:17.862Z,31.62
2019-05-23T14:06:47.430Z,32.81
2019-05-23T14:09:18.078Z,33.02
2019-05-23T14:11:47.673Z,33.06
2019-05-23T14:14:17.183Z,31.88
2019-05-23T14:17:03.500Z,30.35
2019-05-23T14:19:33.070Z,31.10
2019-05-23T14:22:02.801Z,31.84
2019-05-23T14:24:50.762Z,31.74
2019-05-23T14:27:40.052Z,31.20
2019-05-23T14:30:19.619Z,32.45
2019-05-23T14:32:54.415Z,33.22
2019-05-23T14:35:28.237Z,32.83
2019-05-23T14:37:59.496Z,30.73
2019-05-23T14:40:29.241Z,31.73
2019-05-23T14:43:17.678Z,31.67
2019-05-23T14:46:08.220Z,33.03
2019-05-23T14:48:46.112Z,31.93
2019-05-23T14:51:26.047Z,33.29
2019-05-23T14:54:00.787Z,33.59
2019-05-23T14:56:31.570Z,33.01
2019-05-23T14:59:01.038Z,32.84
2019-05-23T15:01:32.554Z,31.60
2019-05-23T15:04:02.580Z,30.92
2019-05-23T15:06:32.246Z,31.63
2019-05-23T15:09:01.839Z,32.77
2019-05-23T15:11:31.250Z,32.61
2019-05-23T15:14:00.821Z,31.95
2019-05-23T15:16:30.268Z,31.76
2019-05-23T15:19:00.177Z,31.88
2019-05-23T15:21:29.759Z,29.45
2019-05-23T15:23:59.325Z,30.76
2019-05-23T15:26:28.943Z,32.09
2019-05-23T15:28:58.426Z,31.18
2019-05-23T15:31:28.074Z,31.06
2019-05-23T15:33:57.562Z,31.65
2019-05-23T15:36:27.144Z,32.33
2019-05-23T15:39:08.720Z,31.65
2019-05-23T15:41:28.597Z,31.34
2019-05-23T15:43:58.200Z,32.04
2019-05-23T15:46:27.757Z,31.21
2019-05-23T15:48:57.255Z,31.48
2019-05-23T15:51:32.548Z,31.29
2019-05-23T15:54:07.673Z,32.11
2019-05-23T15:57:05.145Z,32.49
2019-05-23T15:59:45.441Z,32.55
2019-05-23T16:02:28.491Z,32.90
2019-05-23T16:05:00.273Z,31.07
2019-05-23T16:07:30.431Z,32.83
2019-05-23T16:10:00.157Z,31.05
2019-05-23T16:12:29.621Z,31.11
2019-05-23T16:14:59.212Z,30.43
2019-05-23T16:17:29.094Z,31.80
2019-05-23T16:19:58.601Z,31.80
2019-05-23T16:22:28.159Z,30.10
2019-05-23T16:24:57.751Z,29.79
2019-05-23T16:27:27.513Z,30.90
2019-05-23T16:29:57.315Z,31.89
2019-05-23T16:32:27.214Z,30.27
2019-05-23T16:34:56.717Z,30.91
2019-05-23T16:37:26.604Z,30.12
2019-05-23T16:39:56.151Z,30.43
2019-05-23T16:42:25.920Z,30.11
2019-05-23T16:44:55.624Z,30.22
2019-05-23T16:47:25.460Z,30.35
2019-05-23T16:49:55.594Z,29.90
2019-05-23T16:52:25.122Z,29.03
2019-05-23T16:54:56.373Z,26.60
2019-05-23T16:57:46.684Z,24.83
2019-05-23T17:00:34.242Z,23.44
2019-05-23T17:03:40.981Z,22.75
2019-05-23T17:06:26.148Z,22.17
2019-05-23T17:09:07.429Z,21.72
2019-05-23T17:11:52.129Z,21.59
2019-05-23T17:14:26.676Z,21.51
2019-05-23T17:17:10.342Z,21.82
2019-05-23T17:19:44.993Z,22.33
2019-05-23T17:22:30.384Z,22.76
2019-05-23T17:25:17.568Z,22.27
2019-05-23T17:28:12.223Z,21.58
2019-05-23T17:30:47.536Z,21.04
2019-05-23T17:33:17.565Z,20.69
2019-05-23T17:35:47.121Z,20.35
2019-05-23T17:38:17.288Z,20.21
2019-05-23T17:40:46.878Z,20.09
2019-05-23T17:43:16.687Z,20.04
2019-05-23T17:45:46.412Z,19.78
2019-05-23T17:48:16.167Z,19.54
2019-05-23T17:50:45.785Z,19.50
2019-05-23T17:53:15.307Z,19.36
2019-05-23T17:55:45.817Z,19.18
2019-05-23T17:58:16.278Z,19.12
2019-05-23T18:00:47.683Z,19.02
2019-05-23T18:03:17.555Z,18.88
2019-05-23T18:05:47.533Z,18.83
2019-05-23T18:08:17.550Z,18.74
2019-05-23T18:10:48.077Z,18.63
2019-05-23T18:13:18.810Z,18.51
2019-05-23T18:15:48.871Z,18.45
2019-05-23T18:18:18.869Z,18.32
2019-05-23T18:20:48.657Z,18.17
2019-05-23T18:23:18.338Z,18.03
2019-05-23T18:25:48.109Z,17.84
2019-05-23T18:28:19.460Z,17.68
2019-05-23T18:31:13.570Z,17.58
2019-05-23T18:33:43.970Z,17.41
2019-05-23T18:36:13.553Z,17.23
2019-05-23T18:38:43.157Z,17.05
2019-05-23T18:41:12.670Z,16.74
2019-05-23T18:43:43.301Z,16.55
2019-05-23T18:46:18.463Z,16.44
2019-05-23T18:48:48.169Z,16.11
2019-05-23T18:57:10.439Z,15.44
2019-05-23T18:59:40.189Z,15.37
2019-05-23T19:02:10.224Z,15.18
2019-05-23T19:04:39.771Z,14.98
2019-05-23T19:07:11.228Z,14.78
2019-05-23T19:09:42.785Z,14.64
2019-05-23T19:12:12.553Z,14.59
2019-05-23T19:14:42.094Z,14.39
2019-05-23T19:17:11.695Z,14.28
2019-05-23T19:19:41.175Z,14.08
2019-05-23T19:22:11.109Z,13.93
2019-05-23T19:24:40.584Z,13.80
2019-05-23T19:27:14.101Z,13.70
2019-05-23T19:29:43.202Z,13.53
2019-05-23T19:32:14.568Z,13.37
2019-05-23T19:34:44.028Z,13.33
2019-05-23T19:37:14.149Z,13.23
2019-05-23T19:39:43.744Z,13.22
2019-05-23T19:42:15.073Z,13.18
2019-05-23T19:44:44.597Z,13.04
2019-05-23T19:47:14.208Z,13.03
2019-05-23T19:49:43.760Z,12.93
2019-05-23T19:52:13.901Z,13.07
2019-05-23T19:54:43.612Z,12.97
2019-05-23T19:57:13.207Z,13.12
2019-05-23T19:59:42.726Z,12.96
2019-05-23T20:02:31.256Z,12.95
2019-05-23T20:05:08.191Z,12.88
2019-05-23T20:07:37.770Z,12.87
2019-05-23T20:10:08.489Z,12.59
2019-05-23T20:12:38.416Z,12.48
2019-05-23T20:15:08.732Z,12.40
2019-05-23T20:17:38.380Z,12.33
2019-05-23T20:20:08.561Z,12.33
2019-05-23T20:22:38.279Z,12.47
2019-05-23T20:25:08.798Z,12.32
2019-05-23T20:27:38.589Z,12.21
2019-05-23T20:30:11.101Z,12.20
2019-05-23T20:32:40.674Z,12.05
2019-05-23T20:35:10.551Z,11.81
2019-05-23T20:37:41.441Z,11.81
2019-05-23T20:40:11.090Z,11.72
2019-05-23T20:42:40.674Z,11.67
2019-05-23T20:45:10.165Z,11.67
2019-05-23T20:47:39.606Z,11.67
2019-05-23T20:50:09.299Z,11.59
2019-05-23T20:52:38.803Z,11.59
2019-05-23T20:55:08.493Z,11.39
2019-05-23T20:57:38.024Z,11.39
2019-05-23T21:00:09.477Z,11.23
2019-05-23T21:02:38.967Z,11.29
2019-05-23T21:05:09.284Z,11.29
2019-05-23T21:07:38.802Z,11.30
2019-05-23T21:10:08.822Z,11.30
2019-05-23T21:12:38.329Z,11.27
2019-05-23T21:15:07.944Z,11.20
2019-05-23T21:17:37.477Z,11.20
2019-05-23T21:20:08.672Z,11.09
2019-05-23T21:22:38.158Z,10.99
2019-05-23T21:25:07.790Z,10.97
2019-05-23T21:27:37.350Z,10.93
2019-05-23T21:30:06.892Z,10.93
2019-05-23T21:32:36.397Z,10.99
2019-05-23T21:35:06.735Z,11.08
2019-05-23T21:37:36.244Z,11.37
2019-05-23T21:40:06.430Z,11.37
2019-05-23T21:42:47.489Z,11.34
2019-05-23T21:45:07.908Z,11.40
2019-05-23T21:47:37.416Z,11.19
2019-05-23T21:50:07.209Z,11.04
2019-05-23T21:52:36.729Z,10.81
2019-05-23T21:55:06.635Z,10.62
2019-05-23T21:57:36.486Z,10.58
2019-05-23T22:00:08.492Z,10.58
2019-05-23T22:02:38.018Z,10.50
2019-05-23T22:05:14.561Z,10.50
2019-05-23T22:07:44.126Z,10.54
2019-05-23T22:10:13.949Z,10.56
2019-05-23T22:12:43.493Z,10.47
2019-05-23T22:15:17.394Z,10.36
2019-05-23T22:17:47.671Z,10.18
2019-05-23T22:20:17.670Z,10.18
2019-05-23T22:22:47.702Z,10.06
2019-05-23T22:25:21.127Z,9.94
2019-05-23T22:27:50.554Z,9.86
2019-05-23T22:30:20.140Z,9.78
2019-05-23T22:32:50.674Z,9.81
2019-05-23T22:35:20.906Z,9.72
2019-05-23T22:37:50.522Z,9.77
2019-05-23T22:40:20.096Z,9.68
2019-05-23T22:42:49.704Z,9.64
2019-05-23T22:45:22.096Z,9.59
2019-05-23T22:47:51.659Z,9.74
2019-05-23T22:50:21.270Z,9.74
2019-05-23T22:52:51.130Z,9.74
2019-05-23T22:55:20.617Z,9.67
2019-05-23T22:57:50.094Z,9.70
2019-05-23T23:00:26.153Z,9.59
2019-05-23T23:02:55.823Z,9.60
2019-05-23T23:05:25.276Z,9.45
2019-05-23T23:07:55.001Z,9.37
2019-05-23T23:10:24.433Z,9.47
2019-05-23T23:12:53.869Z,9.45
2019-05-23T23:15:24.415Z,9.67
2019-05-23T23:17:54.298Z,9.77
2019-05-23T23:20:23.659Z,9.71
2019-05-23T23:22:53.129Z,9.80
2019-05-23T23:25:22.636Z,9.79
2019-05-23T23:27:52.229Z,9.78
2019-05-23T23:30:24.996Z,9.66
2019-05-23T23:32:54.403Z,9.55
2019-05-23T23:35:23.870Z,9.50
2019-05-23T23:37:53.369Z,9.40
2019-05-23T23:40:22.862Z,9.22
2019-05-23T23:42:52.357Z,9.16
2019-05-23T23:45:39.441Z,9.06
2019-05-23T23:48:26.609Z,9.18
2019-05-23T23:51:13.981Z,9.35
2019-05-23T23:54:01.213Z,9.40
2019-05-23T23:56:48.501Z,9.40
2019-05-23T23:59:17.196Z,9.23
